Time;durP1;ratioP1;P1;durP2;ratioP2;P2;SDS_P1;SDS_P2;PMS_P1;PMS_P2;Temp;Humidity;BMP_temperature;BMP_pressure;BME280_temperature;BME280_humidity;BME280_pressure;Samples;Min_cycle;Max_cycle;Signal;HPM_P1;HPM_P2
2022/02/09 00:02:17;;;;;;;2.17;0.87;;;;;;;6.79;62.90;98760.69;6227759;28;20245;-73
2022/02/09 00:08:23;;;;;;;2.63;0.73;;;;;;;6.77;62.86;98761.72;6229143;28;20243;-72
2022/02/09 00:11:29;;;;;;;4.57;1.00;;;;;;;6.76;63.28;98760.88;6228072;28;20263;-72
2022/02/09 00:18:01;;;;;;;1.10;0.50;;;;;;;6.71;63.45;98768.09;6227778;28;20232;-73
2022/02/09 00:24:42;;;;;;;0.60;0.47;;;;;;;6.69;63.44;98769.91;6228221;28;20230;-72
2022/02/09 00:28:04;;;;;;;0.97;0.43;;;;;;;6.68;63.32;98777.91;6228302;28;20224;-72
2022/02/09 00:44:42;;;;;;;0.47;0.47;;;;;;;6.70;63.27;98786.50;6203963;28;20238;-72
2022/02/09 01:11:32;;;;;;;2.53;0.50;;;;;;;6.65;63.20;98802.47;6213373;28;20291;-72
2022/02/09 01:51:10;;;;;;;1.20;0.60;;;;;;;6.73;63.36;98775.88;6217187;28;20610;-73
2022/02/09 01:58:10;;;;;;;0.80;0.60;;;;;;;6.72;63.50;98779.44;6227243;28;20236;-72
2022/02/09 02:01:13;;;;;;;2.10;0.60;;;;;;;6.70;63.61;98800.47;6225595;28;20233;-73
2022/02/09 02:04:15;;;;;;;1.80;0.70;;;;;;;6.74;63.15;98780.22;6227066;28;20243;-73
2022/02/09 02:07:31;;;;;;;1.17;0.70;;;;;;;6.73;63.03;98770.63;6231621;28;20220;-72
2022/02/09 02:10:45;;;;;;;1.07;0.70;;;;;;;6.73;63.06;98770.63;6219674;28;20260;-73
2022/02/09 02:16:58;;;;;;;1.80;0.87;;;;;;;6.76;62.45;98787.09;6226559;28;20226;-73
2022/02/09 02:20:12;;;;;;;3.37;1.23;;;;;;;6.75;62.74;98774.91;6226201;28;20255;-72
2022/02/09 02:36:35;;;;;;;3.63;1.10;;;;;;;6.80;62.43;98783.38;6226198;28;20240;-72
2022/02/09 03:15:51;;;;;;;1.53;0.77;;;;;;;6.77;63.41;98778.31;6228316;28;20230;-73
2022/02/09 03:25:26;;;;;;;1.67;0.73;;;;;;;6.80;63.13;98799.13;6229080;28;20230;-71
2022/02/09 03:48:28;;;;;;;1.00;0.50;;;;;;;6.81;62.68;98802.59;6228685;28;20310;-72
2022/02/09 03:51:44;;;;;;;0.93;0.50;;;;;;;6.81;62.79;98799.97;6229527;28;20290;-72
2022/02/09 03:54:58;;;;;;;2.60;0.50;;;;;;;6.77;62.69;98798.44;6229213;28;20719;-73
2022/02/09 03:58:00;;;;;;;1.50;0.53;;;;;;;6.70;63.46;98797.84;6228246;28;20237;-72
2022/02/09 04:01:03;;;;;;;1.17;0.80;;;;;;;6.62;63.66;98802.63;6227664;28;20262;-74
2022/02/09 04:04:06;;;;;;;2.93;0.50;;;;;;;6.69;63.08;98803.19;6229159;28;20717;-72
2022/02/09 04:07:12;;;;;;;1.93;0.67;;;;;;;6.65;63.26;98813.81;6228678;28;20236;-72
2022/02/09 04:10:20;;;;;;;2.27;0.60;;;;;;;6.62;63.14;98798.22;6220784;28;20700;-73
2022/02/09 04:13:54;;;;;;;0.87;0.40;;;;;;;6.59;62.87;98800.97;6215034;28;20648;-72
2022/02/09 04:20:24;;;;;;;0.60;0.50;;;;;;;6.51;62.95;98795.25;6228692;28;20229;-72
2022/02/09 04:40:30;;;;;;;0.80;0.60;;;;;;;6.22;63.53;98777.38;6220468;28;20237;-72
2022/02/09 04:50:08;;;;;;;2.63;0.60;;;;;;;5.99;64.58;98774.94;6203465;28;20237;-71
2022/02/09 04:54:09;;;;;;;0.77;0.50;;;;;;;6.05;64.77;98772.03;6203716;28;20315;-71
2022/02/09 04:59:52;;;;;;;0.50;0.50;;;;;;;6.07;64.65;98765.81;6203066;28;20717;-72
2022/02/09 05:26:20;;;;;;;0.90;0.70;;;;;;;5.75;65.42;98785.53;6227623;28;20240;-72
2022/02/09 05:29:26;;;;;;;2.27;0.50;;;;;;;5.77;66.04;98772.38;6226670;28;20516;-73
2022/02/09 05:32:28;;;;;;;1.00;0.70;;;;;;;5.74;65.33;98772.50;6226289;28;20618;-72
2022/02/09 05:35:30;;;;;;;0.87;0.50;;;;;;;5.79;65.97;98773.16;6226349;28;20964;-72
2022/02/09 05:38:33;;;;;;;1.13;0.60;;;;;;;5.90;65.21;98768.31;6216906;28;20232;-72
2022/02/09 05:41:42;;;;;;;1.70;0.70;;;;;;;5.98;64.84;98787.19;6218845;28;20243;-73
2022/02/09 05:44:44;;;;;;;1.10;0.70;;;;;;;5.91;65.09;98780.50;6226607;28;20234;-72
2022/02/09 05:48:21;;;;;;;0.60;0.50;;;;;;;5.89;65.45;98779.72;6225147;28;20223;-72
2022/02/09 05:51:19;;;;;;;1.13;0.50;;;;;;;5.89;65.81;98771.84;6225151;28;20318;-72
2022/02/09 05:54:49;;;;;;;0.60;0.60;;;;;;;5.81;66.25;98772.16;6227037;28;20228;-71
2022/02/09 05:57:53;;;;;;;3.50;0.60;;;;;;;5.78;66.15;98764.47;6224955;28;20226;-72
2022/02/09 06:00:55;;;;;;;1.47;0.80;;;;;;;5.79;65.66;98775.78;6226522;28;20565;-72
2022/02/09 06:03:58;;;;;;;2.50;0.60;;;;;;;5.82;66.31;98779.09;6202443;28;20239;-71
2022/02/09 06:07:00;;;;;;;0.67;0.40;;;;;;;5.90;65.12;98769.16;6224178;28;20238;-72
2022/02/09 06:10:03;;;;;;;2.63;0.60;;;;;;;5.86;65.80;98782.44;6221209;28;20249;-72
2022/02/09 06:13:24;;;;;;;0.80;0.60;;;;;;;5.84;66.06;98771.19;6206721;28;20244;-72
2022/02/09 06:19:49;;;;;;;0.50;0.40;;;;;;;5.85;65.62;98778.97;6226490;28;20231;-72
2022/02/09 06:22:52;;;;;;;2.10;0.70;;;;;;;5.89;65.40;98777.09;6225249;28;20252;-73
2022/02/09 06:25:54;;;;;;;1.50;0.50;;;;;;;5.90;65.57;98779.66;6226419;28;20236;-72
2022/02/09 06:28:56;;;;;;;0.93;0.83;;;;;;;5.94;65.95;98788.22;6226399;28;20230;-72
2022/02/09 06:32:07;;;;;;;0.93;0.50;;;;;;;6.00;65.37;98784.47;6224098;28;20613;-72
2022/02/09 06:35:09;;;;;;;0.83;0.50;;;;;;;6.04;65.20;98772.97;6225319;28;20232;-72
2022/02/09 06:38:13;;;;;;;0.40;0.40;;;;;;;6.10;65.23;98775.28;6226201;28;20240;-72
2022/02/09 06:41:15;;;;;;;1.10;0.57;;;;;;;6.06;65.09;98777.22;6211331;28;20232;-73
2022/02/09 06:44:20;;;;;;;0.43;0.30;;;;;;;6.02;65.09;98770.41;6207193;28;20234;-72
2022/02/09 06:47:25;;;;;;;1.07;0.63;;;;;;;6.06;65.60;98779.00;6200753;28;20351;-72
2022/02/09 06:50:36;;;;;;;1.33;0.30;;;;;;;5.95;66.38;98778.59;6215572;28;20668;-72
2022/02/09 06:54:02;;;;;;;1.03;0.60;;;;;;;5.97;66.01;98788.09;6230608;28;20228;-74
2022/02/09 06:57:11;;;;;;;1.90;0.77;;;;;;;6.03;65.33;98782.59;6229309;28;20231;-72
2022/02/09 07:00:15;;;;;;;0.50;0.50;;;;;;;6.05;65.42;98790.38;6228816;28;20456;-73
2022/02/09 07:03:17;;;;;;;1.70;0.43;;;;;;;6.05;65.64;98780.75;6229449;28;20224;-73
2022/02/09 07:06:20;;;;;;;0.90;0.50;;;;;;;6.06;65.41;98779.00;6228500;28;20591;-72
2022/02/09 07:09:23;;;;;;;1.00;0.40;;;;;;;6.11;64.90;98782.25;6204859;28;20225;-72
2022/02/09 07:12:26;;;;;;;1.40;0.60;;;;;;;6.11;65.20;98772.59;6226911;28;20234;-72
2022/02/09 07:15:32;;;;;;;1.50;0.50;;;;;;;6.17;64.97;98774.13;6244872;28;20348;-73
2022/02/09 07:18:36;;;;;;;1.87;0.53;;;;;;;6.23;64.80;98774.69;6227620;28;20237;-73
2022/02/09 07:21:40;;;;;;;1.10;0.50;;;;;;;6.24;65.06;98784.25;6229103;28;20750;-72
2022/02/09 07:24:43;;;;;;;1.17;0.63;;;;;;;6.29;65.08;98784.03;6229514;28;20693;-72
2022/02/09 07:30:50;;;;;;;0.80;0.60;;;;;;;6.30;65.09;98801.47;6228572;28;20867;-74
2022/02/09 07:33:53;;;;;;;1.70;0.30;;;;;;;6.29;64.84;98803.22;6210951;28;20675;-75
2022/02/09 07:36:56;;;;;;;0.60;0.50;;;;;;;6.27;65.00;98801.63;6229457;28;20250;-74
2022/02/09 07:39:59;;;;;;;0.90;0.60;;;;;;;6.30;64.73;98807.56;6224741;28;20237;-73
2022/02/09 07:43:10;;;;;;;0.60;0.60;;;;;;;6.27;65.28;98812.09;6199422;28;20233;-74
2022/02/09 07:46:54;;;;;;;0.50;0.50;;;;;;;6.27;65.44;98799.84;6220431;28;20723;-75
2022/02/09 07:50:37;;;;;;;1.50;0.53;;;;;;;6.29;64.75;98803.22;6224035;28;20324;-74
2022/02/09 07:53:46;;;;;;;1.23;0.50;;;;;;;6.33;64.65;98809.19;6228999;28;20236;-73
2022/02/09 07:56:49;;;;;;;0.90;0.63;;;;;;;6.46;64.15;98797.25;6228888;28;20228;-74
2022/02/09 07:59:51;;;;;;;1.40;0.60;;;;;;;6.54;63.96;98813.47;6228680;28;20239;-73
2022/02/09 08:02:54;;;;;;;1.07;0.67;;;;;;;6.55;64.01;98812.56;6228297;28;20238;-73
2022/02/09 08:05:56;;;;;;;1.30;0.90;;;;;;;6.49;64.32;98798.88;6229107;28;20564;-74
2022/02/09 08:09:05;;;;;;;0.93;0.60;;;;;;;6.40;64.44;98791.41;6227371;28;20233;-75
2022/02/09 08:26:26;;;;;;;0.97;0.60;;;;;;;6.40;64.99;98794.03;6227049;28;20241;-74
2022/02/09 08:29:30;;;;;;;2.20;0.70;;;;;;;6.57;64.66;98792.34;6217340;28;20222;-74
2022/02/09 08:32:40;;;;;;;2.77;0.50;;;;;;;6.75;63.92;98793.25;6219564;28;20731;-75
2022/02/09 08:35:48;;;;;;;1.47;0.60;;;;;;;6.91;63.55;98796.84;6210188;28;20235;-73
2022/02/09 08:38:51;;;;;;;0.70;0.40;;;;;;;7.16;62.68;98800.94;6223518;28;20269;-73
2022/02/09 08:41:54;;;;;;;1.37;0.53;;;;;;;7.33;61.93;98782.56;6204963;28;20242;-74
2022/02/09 08:44:56;;;;;;;0.93;0.60;;;;;;;7.54;61.27;98786.75;6224533;28;20567;-74
2022/02/09 08:48:20;;;;;;;0.90;0.50;;;;;;;7.75;60.80;98785.66;6211390;28;20318;-75
2022/02/09 08:51:24;;;;;;;1.50;0.87;;;;;;;7.88;60.39;98785.03;6219783;28;20241;-74
2022/02/09 08:54:28;;;;;;;1.70;0.80;;;;;;;8.05;60.16;98770.09;6224326;28;20234;-74
2022/02/09 08:57:30;;;;;;;0.80;0.50;;;;;;;8.25;59.07;98782.19;6243588;28;20236;-75
2022/02/09 09:00:37;;;;;;;2.77;0.80;;;;;;;8.42;58.37;98774.25;6221136;28;20231;-73
2022/02/09 09:03:52;;;;;;;1.57;0.70;;;;;;;8.56;57.58;98770.88;6213809;28;20327;-74
2022/02/09 09:06:57;;;;;;;0.60;0.50;;;;;;;8.79;57.18;98766.97;6226913;28;20322;-74
2022/02/09 09:10:10;;;;;;;1.43;0.60;;;;;;;9.10;57.02;98774.84;6221278;28;20584;-73
2022/02/09 09:41:25;;;;;;;1.90;0.70;;;;;;;11.08;51.36;98783.88;6221007;28;20716;-74
2022/02/09 10:34:35;;;;;;;1.40;0.67;;;;;;;12.56;47.17;98751.72;6208887;28;20694;-73
2022/02/09 10:37:37;;;;;;;2.10;0.60;;;;;;;12.62;47.32;98747.78;6225940;28;20238;-73
2022/02/09 10:40:46;;;;;;;1.87;0.93;;;;;;;12.58;45.63;98730.38;6223155;28;20231;-73
2022/02/09 10:44:02;;;;;;;1.80;0.70;;;;;;;12.98;45.97;98725.69;6226219;28;20235;-74
2022/02/09 10:47:04;;;;;;;2.30;0.60;;;;;;;13.24;45.52;98724.66;6225071;28;20238;-73
2022/02/09 10:50:34;;;;;;;1.50;0.80;;;;;;;13.47;44.98;98720.31;6225092;28;20230;-73
2022/02/09 10:53:36;;;;;;;1.80;0.90;;;;;;;13.40;44.76;98726.16;6223392;28;20332;-72
2022/02/09 10:56:41;;;;;;;1.70;0.90;;;;;;;13.23;44.61;98728.28;6226038;28;20368;-73
2022/02/09 10:59:47;;;;;;;0.93;0.57;;;;;;;13.46;44.90;98723.06;6225780;28;20256;-72
2022/02/09 11:02:50;;;;;;;1.23;0.50;;;;;;;13.52;44.14;98725.25;6224255;28;20318;-73
2022/02/09 11:05:57;;;;;;;1.97;0.57;;;;;;;13.50;43.53;98721.84;6224954;28;20305;-73
2022/02/09 11:09:06;;;;;;;1.57;0.70;;;;;;;13.58;44.98;98722.13;6223781;28;20389;-74
2022/02/09 11:12:09;;;;;;;1.33;0.80;;;;;;;13.70;43.81;98721.19;6218737;28;20330;-71
2022/02/09 11:15:17;;;;;;;0.80;0.60;;;;;;;13.69;43.33;98716.84;6225412;28;20600;-73
2022/02/09 11:18:22;;;;;;;0.60;0.60;;;;;;;13.82;42.91;98698.19;6224800;28;20211;-72
2022/02/09 11:21:35;;;;;;;1.40;0.60;;;;;;;13.69;43.82;98706.22;6225414;28;20220;-73
2022/02/09 11:24:47;;;;;;;2.00;0.87;;;;;;;13.46;43.55;98694.75;6224078;28;20231;-73
2022/02/09 11:28:34;;;;;;;2.77;0.70;;;;;;;13.71;43.80;98688.41;6225471;28;20250;-73
2022/02/09 11:32:11;;;;;;;1.73;0.70;;;;;;;13.46;43.36;98691.25;6200248;28;20591;-73
2022/02/09 11:35:37;;;;;;;2.80;0.87;;;;;;;13.25;43.29;98689.25;6227508;28;20239;-73
2022/02/09 11:38:43;;;;;;;1.67;0.87;;;;;;;13.56;43.63;98674.53;6228923;28;20236;-73
2022/02/09 11:42:23;;;;;;;0.73;0.60;;;;;;;13.93;42.46;98674.31;6228738;28;20239;-73
2022/02/09 11:45:56;;;;;;;2.03;0.87;;;;;;;13.83;42.56;98674.19;6205260;28;20267;-74
2022/02/09 11:52:20;;;;;;;2.17;0.80;;;;;;;14.25;42.41;98667.31;6228725;28;20604;-73
2022/02/09 12:09:18;;;;;;;1.53;0.80;;;;;;;14.98;40.37;98668.50;6228310;28;20216;-73
2022/02/09 12:12:40;;;;;;;1.07;0.67;;;;;;;15.23;39.08;98654.03;6226764;28;20243;-72
2022/02/09 12:19:10;;;;;;;1.17;0.57;;;;;;;15.40;40.12;98643.66;6228232;28;20228;-73
2022/02/09 12:22:20;;;;;;;1.23;0.60;;;;;;;15.09;39.92;98650.69;6209737;28;20595;-73
2022/02/09 12:25:22;;;;;;;1.10;0.80;;;;;;;15.06;38.17;98639.50;6228560;28;20272;-73
2022/02/09 12:28:29;;;;;;;1.57;0.73;;;;;;;15.27;39.40;98632.34;6228176;28;20268;-72
2022/02/09 12:31:32;;;;;;;0.73;0.60;;;;;;;15.55;38.83;98632.72;6228272;28;20586;-72
2022/02/09 12:34:34;;;;;;;1.47;0.70;;;;;;;15.97;38.23;98634.31;6228080;28;20245;-73
2022/02/09 12:37:40;;;;;;;1.07;0.80;;;;;;;15.93;38.08;98619.63;6209188;28;20232;-72
2022/02/09 12:40:42;;;;;;;0.70;0.50;;;;;;;15.97;38.25;98617.53;6220294;28;20228;-73
2022/02/09 12:43:55;;;;;;;1.33;0.70;;;;;;;15.59;39.25;98626.16;6227362;28;20277;-73
2022/02/09 12:46:58;;;;;;;1.07;0.50;;;;;;;15.73;37.82;98620.50;6231095;28;20584;-73
2022/02/09 12:50:12;;;;;;;2.03;0.90;;;;;;;16.01;37.28;98611.78;6228676;28;20602;-71
2022/02/09 12:53:20;;;;;;;2.20;0.73;;;;;;;16.25;36.62;98614.13;6225595;28;20254;-72
2022/02/09 12:56:29;;;;;;;1.60;0.70;;;;;;;16.42;36.47;98596.63;6225412;28;20642;-73
2022/02/09 12:59:31;;;;;;;1.30;0.80;;;;;;;16.59;36.80;98602.13;6226232;28;20251;-72
2022/02/09 13:02:45;;;;;;;0.93;0.50;;;;;;;16.98;36.27;98595.03;6226193;28;20396;-73
2022/02/09 13:05:53;;;;;;;1.47;0.60;;;;;;;17.34;35.23;98597.94;6226397;28;20231;-72
2022/02/09 13:08:55;;;;;;;2.93;1.00;;;;;;;17.62;34.00;98594.41;6227546;28;20235;-73
2022/02/09 13:11:58;;;;;;;1.30;0.70;;;;;;;17.43;34.83;98601.56;6212802;28;20242;-73
2022/02/09 13:15:16;;;;;;;1.90;0.80;;;;;;;17.72;35.22;98602.38;6225950;28;20235;-75
2022/02/09 14:12:37;;;;;;;1.07;0.60;;;;;;;13.58;39.95;98603.59;6220623;28;20466;-73
2022/02/09 14:51:43;;;;;;;2.67;0.67;;;;;;;11.17;46.48;98616.84;6224941;28;20231;-73
2022/02/09 14:54:55;;;;;;;1.90;0.70;;;;;;;11.09;47.31;98621.78;6223291;28;20900;-72
2022/02/09 14:58:10;;;;;;;1.40;0.70;;;;;;;10.97;47.80;98625.25;6209500;28;20231;-74
2022/02/09 15:01:21;;;;;;;1.73;0.70;;;;;;;10.85;47.50;98616.34;6223598;28;20336;-73
2022/02/09 15:05:08;;;;;;;0.90;0.70;;;;;;;10.73;48.26;98606.59;6222979;28;20237;-73
2022/02/09 15:08:19;;;;;;;1.90;0.70;;;;;;;10.58;48.44;98623.47;6225010;28;20227;-72
2022/02/09 15:11:39;;;;;;;1.23;0.60;;;;;;;10.45;48.96;98626.03;6212292;28;20616;-72
2022/02/09 15:24:22;;;;;;;1.83;0.70;;;;;;;10.06;50.10;98624.13;6227796;28;20223;-72
2022/02/09 15:27:24;;;;;;;2.50;0.87;;;;;;;9.87;51.06;98624.44;6226723;28;20356;-73
2022/02/09 15:30:30;;;;;;;3.07;0.93;;;;;;;9.77;50.63;98615.41;6229873;28;20234;-73
2022/02/09 15:33:40;;;;;;;1.63;0.90;;;;;;;9.65;51.43;98613.53;6229446;28;20439;-71
2022/02/09 15:40:13;;;;;;;1.50;0.90;;;;;;;9.67;50.95;98610.78;6228525;28;20263;-73
2022/02/09 16:10:13;;;;;;;1.63;0.90;;;;;;;8.81;53.85;98605.41;6231020;28;20820;-72
2022/02/09 16:16:58;;;;;;;2.67;1.00;;;;;;;8.54;54.60;98611.41;6229152;28;20232;-72
2022/02/09 16:33:14;;;;;;;1.20;0.83;;;;;;;7.77;57.19;98606.91;6227742;28;20239;-73
2022/02/09 16:46:24;;;;;;;3.10;0.87;;;;;;;7.02;59.38;98620.50;6226592;28;20238;-73
2022/02/09 16:49:33;;;;;;;1.07;0.70;;;;;;;6.67;60.05;98630.16;6209494;28;20234;-72
2022/02/09 17:21:41;;;;;;;3.13;1.10;;;;;;;4.95;66.73;98665.97;6225599;28;20232;-74
2022/02/09 17:24:43;;;;;;;2.50;0.93;;;;;;;4.80;66.43;98665.69;6209408;28;20310;-73
2022/02/09 17:27:47;;;;;;;1.93;1.53;;;;;;;4.80;68.13;98664.81;6227137;28;20242;-73
2022/02/09 17:37:16;;;;;;;2.87;1.37;;;;;;;5.50;68.74;98670.53;6225268;28;20330;-73
2022/02/09 17:53:45;;;;;;;4.80;1.80;;;;;;;6.11;67.11;98672.16;6229190;28;20233;-74
2022/02/09 17:56:50;;;;;;;2.60;1.43;;;;;;;6.06;67.10;98669.78;6201644;28;20228;-73
2022/02/09 18:00:15;;;;;;;2.77;1.83;;;;;;;5.86;67.53;98664.56;6223257;28;20235;-73
2022/02/09 18:03:19;;;;;;;2.50;1.00;;;;;;;5.57;68.47;98681.59;6225822;28;20228;-73
2022/02/09 18:06:29;;;;;;;1.17;1.07;;;;;;;5.34;67.87;98673.88;6226304;28;20236;-72
2022/02/09 18:09:46;;;;;;;4.13;1.70;;;;;;;5.11;68.82;98669.63;6223370;28;20500;-72
2022/02/09 18:32:26;;;;;;;2.37;1.30;;;;;;;4.02;71.64;98662.72;6225887;28;20231;-73
2022/02/09 18:42:46;;;;;;;2.20;1.40;;;;;;;3.77;73.25;98661.09;6224726;28;20254;-73
2022/02/09 18:56:50;;;;;;;4.97;1.80;;;;;;;4.14;75.56;98666.63;6205751;28;20246;-73
2022/02/09 19:05:43;;;;;;;2.80;1.60;;;;;;;5.73;69.38;98651.19;6228708;28;20531;-74
2022/02/09 19:18:35;;;;;;;3.57;1.40;;;;;;;5.48;69.43;98650.59;6229118;28;20230;-72
2022/02/09 19:29:19;;;;;;;2.90;1.30;;;;;;;5.49;69.41;98658.34;6230306;28;20227;-73
2022/02/09 19:32:13;;;;;;;2.67;1.53;;;;;;;5.24;70.38;98651.66;6228613;28;20242;-73
2022/02/09 19:48:35;;;;;;;4.20;1.67;;;;;;;5.28;70.91;98661.06;6228867;28;20289;-73
2022/02/09 19:54:59;;;;;;;5.73;1.80;;;;;;;5.47;69.88;98659.34;6226733;28;20225;-73
2022/02/09 19:58:02;;;;;;;3.80;1.70;;;;;;;5.53;70.38;98653.84;6228539;28;20228;-73
2022/02/09 20:01:04;;;;;;;2.40;1.77;;;;;;;5.59;69.50;98655.34;6227727;28;20224;-72
2022/02/09 20:04:07;;;;;;;2.57;1.83;;;;;;;5.51;69.50;98645.19;6228790;28;20234;-73
2022/02/09 20:07:10;;;;;;;5.47;1.60;;;;;;;5.32;70.70;98645.16;6228583;28;20224;-73
2022/02/09 20:10:12;;;;;;;3.53;1.47;;;;;;;5.32;70.36;98650.41;6222364;28;20383;-72
2022/02/09 20:13:15;;;;;;;4.33;1.83;;;;;;;5.34;70.18;98653.81;6208337;28;20324;-73
2022/02/09 20:16:20;;;;;;;7.20;1.87;;;;;;;5.35;69.59;98655.50;6213799;28;20587;-73
2022/02/09 20:19:22;;;;;;;3.83;2.07;;;;;;;5.27;70.22;98657.59;6228263;28;20231;-72
2022/02/09 20:22:25;;;;;;;3.97;1.60;;;;;;;5.11;70.84;98659.16;6227759;28;20224;-72
2022/02/09 20:25:28;;;;;;;2.90;1.63;;;;;;;4.82;71.36;98660.38;6228124;28;20322;-73
2022/02/09 20:28:30;;;;;;;3.33;1.33;;;;;;;4.45;72.43;98656.69;6227699;28;20235;-73
2022/02/09 20:31:44;;;;;;;1.97;1.37;;;;;;;4.24;73.44;98656.66;6218964;28;20764;-72
2022/02/09 20:34:57;;;;;;;3.73;1.60;;;;;;;4.10;73.49;98657.19;6223297;28;20240;-73
2022/02/09 20:37:59;;;;;;;3.23;1.60;;;;;;;3.84;74.83;98659.97;6218395;28;20244;-72
2022/02/09 20:41:08;;;;;;;2.20;1.20;;;;;;;3.71;74.95;98659.56;6205683;28;20239;-73
2022/02/09 20:44:52;;;;;;;2.13;1.40;;;;;;;3.59;75.63;98657.41;6216381;28;20238;-72
2022/02/09 20:47:44;;;;;;;2.53;1.40;;;;;;;3.43;76.44;98666.69;6227913;28;20302;-73
2022/02/09 20:50:46;;;;;;;3.87;1.53;;;;;;;3.36;76.44;98660.00;6226862;28;20259;-73
2022/02/09 20:53:49;;;;;;;2.47;1.40;;;;;;;3.27;76.65;98662.03;6227235;28;20237;-72
2022/02/09 20:56:51;;;;;;;3.50;1.70;;;;;;;3.20;77.49;98670.09;6227633;28;20229;-73
2022/02/09 21:00:03;;;;;;;3.57;1.20;;;;;;;3.14;77.24;98662.50;6226176;28;20263;-72
2022/02/09 21:09:49;;;;;;;2.53;1.30;;;;;;;2.97;77.24;98663.94;6225699;28;20210;-72
2022/02/09 21:12:57;;;;;;;2.00;1.20;;;;;;;2.84;77.20;98664.41;6228406;28;20235;-71
2022/02/09 21:52:37;;;;;;;2.07;1.27;;;;;;;1.41;79.15;98667.06;6226278;28;20228;-72
2022/02/09 21:55:49;;;;;;;2.17;1.60;;;;;;;1.32;79.41;98664.72;6225831;28;20228;-72
2022/02/09 22:22:15;;;;;;;4.33;1.67;;;;;;;0.58;80.50;98661.50;6225387;28;20236;-72
2022/02/09 22:28:43;;;;;;;2.23;1.37;;;;;;;0.43;81.49;98673.09;6224942;28;20265;-72
2022/02/09 22:32:05;;;;;;;2.60;1.57;;;;;;;0.38;81.22;98672.38;6226160;28;20239;-72
2022/02/09 22:54:44;;;;;;;1.80;1.57;;;;;;;0.02;82.24;98657.63;6225667;28;20232;-72
2022/02/09 22:57:56;;;;;;;3.47;1.60;;;;;;;-0.06;82.02;98663.00;6225844;28;20219;-71
2022/02/09 23:07:28;;;;;;;2.57;1.77;;;;;;;-0.20;82.85;98678.03;6225017;28;20931;-74
2022/02/09 23:14:01;;;;;;;5.33;1.60;;;;;;;-0.26;83.37;98662.56;6224279;28;20240;-70
2022/02/09 23:21:21;;;;;;;3.73;1.77;;;;;;;-0.30;83.50;98655.75;6224702;28;20608;-72
